Latest Weather Observations for Coolangatta

IDN60801

Issued at 5:42 pm EST Thursday 21 June 2018 (issued every 10 minutes, with the page automatically refreshed every 10 minutes)

About weather observations | Map of weather stations | Latest weather observations for NSW | Other Formats
Station Details ID: 040717 Name: COOLANGATTA Lat: -28.17 Lon: 153.51 Height: 4.0 m
Data from the previous 72 hours. | See also: Recent months at Coolangatta
Date/Time
EST
Temp
°C
App
Temp
°C
Dew
Point
°C
Rel
Hum
%
Delta-T
°C
Wind Press
QNH
hPa
Press
MSL
hPa
Rain since
9am
mm
Dir  Spd
km/h
Gust
km/h
Spd
kts
Gust
kts
21/05:00pm 17.1 14.9 10.7 66 3.4 SSW 13 19 7 10 1024.2 1024.2 0.0
21/04:30pm 18.1 15.6 11.0 63 3.8 SSW 15 22 8 12 1024.0 1024.0 0.0
21/04:00pm 18.6 16.2 11.4 63 3.9 SSW 15 20 8 11 1023.8 1023.8 0.0
21/03:30pm 19.1 16.4 11.7 62 4.1 SSW 17 26 9 14 1023.7 1023.7 0.0
21/03:00pm 19.0 15.9 11.6 62 4.0 S 19 30 10 16 1023.7 1023.7 0.0
21/02:30pm 18.9 16.4 11.2 61 4.2 SSW 15 24 8 13 1023.7 1023.7 0.0
21/02:00pm 20.3 16.6 11.5 57 4.8 S 22 30 12 16 1023.6 1023.6 0.0
21/01:30pm 18.5 14.7 11.3 63 3.9 S 22 32 12 17 1023.7 1023.7 0.0
21/01:00pm 20.9 17.8 11.5 55 5.2 S 19 26 10 14 1023.6 1023.6 0.0
21/12:30pm 19.2 15.8 11.3 60 4.3 SSW 20 32 11 17 1023.9 1023.9 0.0
21/12:00pm 20.6 17.4 11.8 57 4.9 S 20 30 11 16 1024.1 1024.1 0.0
21/11:30am 18.9 15.3 10.5 58 4.5 SSW 20 33 11 18 1024.6 1024.6 0.0
21/11:00am 18.6 15.2 10.4 59 4.4 SSW 19 30 10 16 1025.0 1025.0 0.0
21/10:30am 19.0 15.3 10.0 56 4.8 S 20 28 11 15 1025.2 1025.2 0.0
21/10:00am 18.7 15.6 10.3 58 4.5 SSW 17 24 9 13 1025.2 1025.2 0.0
21/09:30am 17.8 14.2 9.7 59 4.3 S 19 33 10 18 1025.3 1025.3 0.0
21/09:00am 16.0 12.5 8.7 62 3.7 SSW 17 28 9 15 1025.1 1025.1 0.0
21/08:30am 15.8 11.2 8.3 61 3.8 SSW 22 32 12 17 1024.8 1024.8 0.0
21/08:00am 15.5 12.0 8.7 64 3.4 SSW 17 24 9 13 1024.6 1024.6 0.0
21/07:30am 14.6 10.9 8.1 65 3.2 SSW 17 26 9 14 1024.4 1024.4 0.0
21/07:00am 14.2 10.5 7.9 66 3.1 SSW 17 28 9 15 1024.0 1024.0 0.0
21/06:30am 14.3 10.0 7.8 65 3.2 SW 20 32 11 17 1023.5 1023.5 0.0
21/06:00am 14.2 10.1 7.7 65 3.2 SSW 19 32 10 17 1023.2 1023.2 0.0
21/05:30am 14.3 10.1 7.6 64 3.3 SW 19 30 10 16 1023.1 1023.1 0.0
21/05:00am 14.2 10.3 7.3 63 3.4 SSW 17 26 9 14 1022.9 1022.9 0.0
21/04:30am 14.5 10.2 6.8 60 3.7 SSW 19 28 10 15 1022.8 1022.8 0.0
21/04:00am 14.3 10.7 6.9 61 3.6 SSW 15 22 8 12 1022.8 1022.8 0.0
21/03:30am 14.6 11.0 6.9 60 3.8 SW 15 24 8 13 1022.7 1022.7 0.0
21/03:00am 14.3 10.6 6.4 59 3.8 SSW 15 22 8 12 1023.1 1023.1 0.0
21/02:30am 14.9 10.8 6.2 56 4.2 SSW 17 26 9 14 1023.4 1023.4 0.0
21/02:00am 15.1 11.0 6.1 55 4.3 SSW 17 24 9 13 1023.5 1023.5 0.0
21/01:30am 15.0 10.9 6.0 55 4.3 SW 17 22 9 12 1023.5 1023.5 0.0
21/01:00am 15.0 10.9 6.0 55 4.3 SSW 17 26 9 14 1023.3 1023.3 0.0
21/12:30am 15.2 10.7 6.0 54 4.4 SSW 19 26 10 14 1023.4 1023.4 0.0
21/12:00am 15.2 11.2 6.5 56 4.2 SSW 17 24 9 13 1023.4 1023.4 0.0
 
Date/Time
EST
Temp
°C
App
Temp
°C
Dew
Point
°C
Rel
Hum
%
Delta-T
°C
Wind Press
QNH
hPa
Press
MSL
hPa
Rain since
9am
mm
Dir  Spd
km/h
Gust
km/h
Spd
kts
Gust
kts
20/11:30pm 15.0 11.5 7.1 59 3.9 SSW 15 24 8 13 1023.4 1023.4 0.0
20/11:00pm 15.1 11.2 7.2 59 3.9 SSW 17 24 9 13 1023.3 1023.3 0.0
20/10:30pm 14.9 12.2 7.2 60 3.8 SW 11 17 6 9 1023.7 1023.7 0.0
20/10:00pm 15.5 11.7 7.5 59 4.0 SSW 17 26 9 14 1023.7 1023.7 0.0
20/09:30pm 15.6 11.8 7.6 59 4.0 SW 17 24 9 13 1023.7 1023.7 0.0
20/09:00pm 15.9 11.6 7.1 56 4.3 SSW 19 26 10 14 1023.6 1023.6 0.0
20/08:30pm 16.1 11.8 7.1 55 4.5 SSW 19 28 10 15 1023.9 1023.9 0.0
20/08:00pm 16.3 12.4 7.0 54 4.6 SSW 17 26 9 14 1023.6 1023.6 0.0
20/07:30pm 16.2 11.9 7.2 55 4.5 SSW 19 26 10 14 1023.4 1023.4 0.0
20/07:00pm 16.5 12.7 7.4 55 4.5 SSW 17 26 9 14 1023.2 1023.2 0.0
20/06:30pm 16.4 12.6 7.6 56 4.4 SSW 17 24 9 13 1022.9 1022.9 0.0
20/06:00pm 16.6 12.9 7.8 56 4.4 SSW 17 24 9 13 1022.5 1022.5 0.0
20/05:30pm 16.9 12.9 8.1 56 4.5 SSW 19 33 10 18 1022.2 1022.2 0.0
20/05:00pm 17.2 13.0 8.4 56 4.5 SSW 20 30 11 16 1021.9 1021.9 0.0
20/04:30pm 17.7 13.3 8.8 56 4.6 SSW 22 33 12 18 1021.5 1021.5 0.0
20/04:00pm 18.5 13.0 9.0 54 4.9 S 28 43 15 23 1021.4 1021.4 0.0
20/03:30pm 19.4 13.8 8.7 50 5.6 SSW 28 46 15 25 1021.2 1021.2 0.0
20/03:22pm 19.6 13.9 8.3 48 5.9 S 28 46 15 25 1021.1 1021.1 0.0
20/03:00pm 19.9 13.9 8.6 48 5.9 SSW 30 43 16 23 1020.9 1020.9 0.0
20/02:30pm 20.3 15.3 9.5 50 5.7 SSW 26 43 14 23 1020.7 1020.7 0.0
20/02:11pm 20.1 14.5 8.8 48 5.9 SSW 28 46 15 25 1020.5 1020.5 0.0
20/02:00pm 20.3 13.8 8.9 48 6.0 S 33 46 18 25 1020.4 1020.4 0.0
20/01:33pm 20.8 15.5 10.0 50 5.8 SSW 28 46 15 25 1020.2 1020.2 0.0
20/01:30pm 20.7 15.8 9.9 50 5.8 SSW 26 44 14 24 1020.3 1020.3 0.0
20/01:00pm 20.2 14.6 10.0 52 5.5 SSW 30 44 16 24 1020.2 1020.2 0.0
20/12:30pm 20.0 14.8 10.4 54 5.2 SSW 28 41 15 22 1020.6 1020.6 0.0
20/12:12pm 20.1 14.8 9.9 52 5.5 SSW 28 48 15 26 1020.7 1020.7 0.0
20/12:00pm 20.0 14.7 9.9 52 5.4 SSW 28 44 15 24 1020.9 1020.9 0.0
20/11:30am 19.6 13.5 9.8 53 5.2 S 32 44 17 24 1021.2 1021.2 0.0
20/11:00am 18.5 13.5 9.6 56 4.7 S 26 39 14 21 1021.6 1021.6 0.0
20/10:30am 19.1 13.6 9.3 53 5.2 SSW 28 43 15 23 1021.5 1021.5 0.0
20/10:00am 18.6 14.3 9.4 55 4.8 SSW 22 35 12 19 1021.7 1021.7 0.0
20/09:30am 17.9 12.3 8.7 55 4.8 SSW 28 39 15 21 1021.7 1021.7 0.0
20/09:00am 17.3 13.1 8.4 56 4.5 SSW 20 35 11 19 1021.5 1021.5 0.0
20/08:30am 16.0 11.9 7.7 58 4.2 SSW 19 30 10 16 1021.6 1021.6 0.0
20/08:00am 15.6 11.1 7.1 57 4.2 SSW 20 32 11 17 1021.2 1021.2 0.0
20/07:30am 14.7 10.2 6.8 59 3.8 SSW 20 30 11 16 1020.7 1020.7 0.0
20/07:00am 14.3 10.3 6.6 60 3.7 SSW 17 24 9 13 1020.7 1020.7 0.0
20/06:30am 14.2 10.5 6.3 59 3.8 SW 15 20 8 11 1020.2 1020.2 0.0
20/06:00am 14.4 10.3 6.3 58 3.9 WSW 17 28 9 15 1020.2 1020.2 0.0
20/05:30am 14.5 10.8 6.1 57 4.0 SW 15 24 8 13 1019.8 1019.8 0.0
20/05:00am 13.8 11.1 5.4 57 3.9 SW 9 19 5 10 1019.6 1019.6 0.0
20/04:30am 13.4 9.9 5.3 58 3.8 WSW 13 28 7 15 1019.1 1019.1 0.0
20/04:00am 12.1 9.6 4.8 61 3.3 W 7 13 4 7 1019.4 1019.4 0.0
20/03:30am 12.3 9.0 4.3 58 3.6 W 11 15 6 8 1019.5 1019.5 0.0
20/03:00am 11.9 9.4 4.6 61 3.3 WSW 7 13 4 7 1019.6 1019.6 0.0
20/02:30am 12.1 9.2 4.6 60 3.4 WSW 9 11 5 6 1019.3 1019.3 0.0
20/02:00am 12.5 9.2 4.7 59 3.6 SW 11 13 6 7 1019.1 1019.1 0.0
20/01:30am 12.2 9.3 4.7 60 3.4 WSW 9 15 5 8 1018.8 1018.8 0.0
20/01:00am 12.9 9.6 4.3 56 3.9 SW 11 17 6 9 1019.0 1019.0 0.0
20/12:30am 13.6 8.7 4.2 53 4.3 SSW 19 28 10 15 1018.8 1018.8 0.0
20/12:00am 13.7 10.0 4.6 54 4.2 S 13 20 7 11 1018.9 1018.9 0.0
 
Date/Time
EST
Temp
°C
App
Temp
°C
Dew
Point
°C
Rel
Hum
%
Delta-T
°C
Wind Press
QNH
hPa
Press
MSL
hPa
Rain since
9am
mm
Dir  Spd
km/h
Gust
km/h
Spd
kts
Gust
kts
19/11:30pm 11.8 8.7 5.4 65 3.0 SSW 11 20 6 11 1019.2 1019.2 0.0
19/11:27pm 11.9 8.5 6.0 67 2.8 SSW 13 20 7 11 1019.2 1019.2 0.0
19/11:00pm 6.9 5.3 4.7 86 1.0 SSW 2 6 1 3 1019.3 1019.3 0.0
19/10:30pm 7.0 5.4 4.7 85 1.0 WSW 2 6 1 3 1019.1 1019.1 0.0
19/10:00pm 7.7 6.5 4.5 80 1.4 CALM 0 6 0 3 1019.0 1019.0 0.0
19/09:30pm 7.2 6.0 4.7 84 1.1 CALM 0 2 0 1 1018.7 1018.7 0.0
19/09:00pm 7.2 4.6 4.0 80 1.4 W 7 7 4 4 1018.5 1018.5 0.0
19/08:30pm 7.7 4.8 4.5 80 1.4 WSW 9 11 5 6 1018.5 1018.5 0.0
19/08:00pm 9.0 7.5 4.8 75 1.9 WSW 2 6 1 3 1018.5 1018.5 0.0
19/07:30pm 9.8 7.0 5.0 72 2.2 WSW 9 9 5 5 1018.3 1018.3 0.0
19/07:00pm 11.6 8.2 6.1 69 2.6 SW 13 15 7 8 1018.3 1018.3 0.0
19/06:30pm 12.3 8.9 6.1 66 2.9 WSW 13 15 7 8 1018.1 1018.1 0.0
19/06:00pm 11.4 8.0 5.7 68 2.6 WSW 13 15 7 8 1017.7 1017.7 0.0
19/05:30pm 11.8 9.3 4.5 61 3.3 WSW 7 11 4 6 1017.2 1017.2 0.0
19/05:00pm 13.1 10.6 3.5 52 4.3 SW 6 9 3 5 1016.7 1016.7 0.0
19/04:30pm 16.8 13.8 1.7 36 6.7 SSW 7 11 4 6 1016.5 1016.5 0.0
19/04:00pm 17.6 12.9 1.2 33 7.3 SSW 15 24 8 13 1016.5 1016.5 0.0
19/03:30pm 18.0 12.9 0.6 31 7.6 SSW 17 30 9 16 1016.3 1016.3 0.0
19/03:00pm 18.5 13.5 1.5 32 7.6 SW 17 28 9 15 1016.0 1016.0 0.0
19/02:30pm 18.8 13.4 1.3 31 7.9 SW 19 28 10 15 1015.8 1015.8 0.0
19/02:00pm 18.4 11.9 0.5 30 7.9 SSW 24 35 13 19 1015.8 1015.8 0.0
19/01:30pm 18.6 12.2 0.7 30 7.9 SSW 24 39 13 21 1015.6 1015.6 0.0
19/01:00pm 19.2 13.8 1.2 30 8.1 SW 19 35 10 19 1015.9 1015.9 0.0
19/12:30pm 19.5 13.7 0.0 27 8.6 SW 20 35 11 19 1016.1 1016.1 0.0
19/12:00pm 19.2 13.8 1.2 30 8.1 SW 19 30 10 16 1016.6 1016.6 0.0
19/11:30am 18.9 12.6 1.4 31 7.9 WSW 24 33 13 18 1017.0 1017.0 0.0
19/11:00am 18.5 14.0 2.4 34 7.4 WSW 15 22 8 12 1017.6 1017.6 0.0
19/10:30am 18.1 13.9 3.6 38 6.8 SSW 15 20 8 11 1017.9 1017.9 0.0
19/10:00am 17.5 13.6 3.4 39 6.5 SSW 13 17 7 9 1017.8 1017.8 0.0
19/09:30am 16.2 13.2 2.2 39 6.3 WSW 7 9 4 5 1017.7 1017.7 0.0
19/09:00am 14.8 12.3 4.5 50 4.8 WSW 7 9 4 5 1017.7 1017.7 0.0
19/08:30am 12.3 10.2 5.7 64 3.1 SSW 6 7 3 4 1017.5 1017.5 0.0
19/08:00am 10.3 8.7 6.5 77 1.8 WSW 4 6 2 3 1017.2 1017.2 0.0
19/07:30am 7.9 5.8 6.0 88 0.9 SW 6 7 3 4 1017.4 1017.4 0.0
19/07:00am 6.2 2.2 4.8 91 0.6 WSW 15 19 8 10 1017.1 1017.1 0.0
19/06:30am 4.7 1.6 3.7 93 0.4 WSW 9 13 5 7 1017.3 1017.3 0.0
19/06:00am 4.5 1.7 3.3 92 0.5 SW 7 9 4 5 1017.0 1017.0 0.0
19/05:30am 4.3 1.5 3.1 92 0.5 WSW 7 9 4 5 1017.0 1017.0 0.0
19/05:00am 4.2 2.3 2.7 90 0.6 SW 2 7 1 4 1016.7 1016.7 0.0
19/04:30am 4.8 2.3 3.6 92 0.5 SW 6 9 3 5 1016.5 1016.5 0.0
19/04:00am 4.3 1.6 2.7 89 0.6 WSW 6 9 3 5 1016.5 1016.5 0.0
19/03:30am 5.9 3.9 4.5 91 0.6 SW 4 7 2 4 1016.4 1016.4 0.0
19/03:00am 5.1 2.3 3.1 87 0.8 WSW 7 9 4 5 1016.5 1016.5 0.0
19/02:30am 6.1 3.7 4.1 87 0.9 W 6 9 3 5 1016.6 1016.6 0.0
19/02:00am 6.0 3.4 3.3 83 1.1 WSW 6 9 3 5 1016.8 1016.8 0.0
19/01:30am 6.4 3.4 4.1 85 1.0 WSW 9 13 5 7 1016.9 1016.9 0.0
19/01:00am 6.2 3.5 3.9 85 1.0 WSW 7 11 4 6 1016.9 1016.9 0.0
19/12:30am 6.1 3.3 2.9 80 1.3 W 7 11 4 6 1016.9 1016.9 0.0
19/12:00am 6.4 4.5 2.7 77 1.5 NW 2 7 1 4 1017.1 1017.1 0.0
 
Date/Time
EST
Temp
°C
App
Temp
°C
Dew
Point
°C
Rel
Hum
%
Delta-T
°C
Wind Press
QNH
hPa
Press
MSL
hPa
Rain since
9am
mm
Dir  Spd
km/h
Gust
km/h
Spd
kts
Gust
kts
18/11:30pm 6.7 3.4 2.4 74 1.8 NW 9 13 5 7 1017.2 1017.2 0.0
18/11:00pm 8.8 6.0 3.4 69 2.3 W 7 11 4 6 1017.4 1017.4 0.0
18/10:30pm 9.0 5.7 2.3 63 2.8 NW 9 15 5 8 1017.2 1017.2 0.0
18/10:00pm 10.7 7.8 2.5 57 3.5 NNW 7 9 4 5 1017.1 1017.1 0.0
18/09:30pm 12.8 10.0 3.2 52 4.3 WSW 7 13 4 7 1017.0 1017.0 0.0
18/09:00pm 12.6 8.7 3.6 54 4.0 WSW 13 20 7 11 1017.1 1017.1 0.0
18/08:30pm 11.6 8.0 3.1 56 3.7 W 11 19 6 10 1017.3 1017.3 0.0
18/08:00pm 9.8 6.7 3.5 65 2.7 WNW 9 15 5 8 1017.4 1017.4 0.0
18/07:30pm 8.3 5.4 2.5 67 2.4 WNW 7 11 4 6 1017.4 1017.4 0.0
18/07:00pm 9.9 6.9 4.3 68 2.5 W 9 11 5 6 1017.1 1017.1 0.0
18/06:30pm 9.4 6.1 2.5 62 2.9 W 9 11 5 6 1016.9 1016.9 0.0
18/06:00pm 12.5 9.9 4.0 56 3.8 WSW 7 13 4 7 1016.4 1016.4 0.0

Other Formats:

Comma delimited format used in spreadsheet applications
http://www.bom.gov.au/fwo/IDN60801/IDN60801.94592.axf

JavaScript Object Notation format (JSON) in row-major order
http://www.bom.gov.au/fwo/IDN60801/IDN60801.94592.json